Sheyenne, North Dakota
Current Conditions -  °F | °C
As of 4:15 PM on Monday 26 Jan 2015 (Local Time) from KDVL Reporting Station
Clear Clear  
Wind Chill: 31°   Ceiling: Unl
Heat Index: 37°   Visibility: 10mi
Dew Point: 30°   Wind: 8mph
Humidity: 75%   Direction: 330°NNW
Pressure: 29.93"   Gusts: NA
Location:  47.83°N, 99.12°W
Report Text: KDVL 262215Z AUTO 33007KT 10SM CLR 03/M01 A2993 RMK AO1
Loading
Personal Weather Stations






























Interactive Weather Map New forecast layout! Learn more

10-Day Weather Forecast

Advertisements
Track Severe Weather on mobile